Time;durP1;ratioP1;P1;durP2;ratioP2;P2;SDS_P1;SDS_P2;PMS_P1;PMS_P2;Temp;Humidity;BMP_temperature;BMP_pressure;BME280_temperature;BME280_humidity;BME280_pressure;Samples;Min_cycle;Max_cycle;Signal;HPM_P1;HPM_P2
2023/10/28 00:01:06;;;;;;;0.80;0.50;;;13.40;99.90;;;;;;5043349;28;20554;-60
2023/10/28 00:03:32;;;;;;;0.73;0.40;;;13.40;99.90;;;;;;5044109;28;20617;-60
2023/10/28 00:05:59;;;;;;;3.40;0.50;;;13.40;99.90;;;;;;5032498;28;20296;-59
2023/10/28 00:08:26;;;;;;;1.73;0.50;;;13.40;99.90;;;;;;5040629;28;20209;-60
2023/10/28 00:10:52;;;;;;;3.57;0.70;;;13.40;99.90;;;;;;5043133;28;20600;-60
2023/10/28 00:13:20;;;;;;;0.93;0.60;;;13.20;99.90;;;;;;5044331;28;20213;-60
2023/10/28 00:15:47;;;;;;;1.20;0.50;;;13.20;99.90;;;;;;5041987;28;20275;-60
2023/10/28 00:18:14;;;;;;;0.93;0.53;;;13.20;99.90;;;;;;5040162;28;20723;-60
2023/10/28 00:20:41;;;;;;;0.57;0.50;;;13.30;99.90;;;;;;5040634;28;20233;-60
2023/10/28 00:23:08;;;;;;;1.17;0.60;;;13.30;99.90;;;;;;5039723;28;20237;-59
2023/10/28 00:25:35;;;;;;;2.17;0.57;;;13.30;99.90;;;;;;5040550;28;20198;-60
2023/10/28 00:28:02;;;;;;;1.10;0.50;;;13.30;99.90;;;;;;5043780;28;20201;-60
2023/10/28 00:30:31;;;;;;;0.57;0.43;;;13.30;99.90;;;;;;5043385;28;20229;-61
2023/10/28 00:32:58;;;;;;;0.63;0.37;;;13.30;99.90;;;;;;5040304;28;20202;-61
2023/10/28 00:35:25;;;;;;;0.93;0.50;;;13.30;99.90;;;;;;5040119;28;20203;-61
2023/10/28 00:37:52;;;;;;;0.97;0.50;;;13.30;99.90;;;;;;5042397;28;20214;-61
2023/10/28 00:40:19;;;;;;;1.20;0.70;;;13.20;99.90;;;;;;5043208;28;20225;-61
2023/10/28 00:42:46;;;;;;;0.90;0.53;;;13.20;99.90;;;;;;5041784;28;20225;-60
2023/10/28 00:45:13;;;;;;;1.10;0.40;;;13.30;99.90;;;;;;5039922;28;20198;-59
2023/10/28 00:47:44;;;;;;;2.17;0.30;;;13.40;99.90;;;;;;5040622;28;20470;-60
2023/10/28 00:50:14;;;;;;;2.77;0.40;;;13.30;99.90;;;;;;5043370;28;20226;-60
2023/10/28 00:52:43;;;;;;;0.83;0.50;;;13.30;99.90;;;;;;5042409;28;20201;-60
2023/10/28 00:55:11;;;;;;;0.60;0.40;;;13.30;99.90;;;;;;5039715;28;20213;-60
2023/10/28 00:57:39;;;;;;;1.47;0.70;;;13.40;99.90;;;;;;5039745;28;20577;-59
2023/10/28 01:00:07;;;;;;;1.10;0.40;;;13.40;99.90;;;;;;5042828;28;20650;-60
2023/10/28 01:02:34;;;;;;;0.57;0.40;;;13.40;99.90;;;;;;5042758;28;20252;-60
2023/10/28 01:05:03;;;;;;;0.60;0.43;;;13.40;99.90;;;;;;5031386;28;20206;-60
2023/10/28 01:07:30;;;;;;;1.10;0.40;;;13.40;99.90;;;;;;5039499;28;20272;-60
2023/10/28 01:09:58;;;;;;;1.77;0.40;;;13.30;99.90;;;;;;5042147;28;20223;-60
2023/10/28 01:12:26;;;;;;;0.83;0.60;;;13.30;99.90;;;;;;5042507;28;20201;-60
2023/10/28 01:14:54;;;;;;;0.50;0.40;;;13.30;99.90;;;;;;5040125;28;20228;-59
2023/10/28 01:17:25;;;;;;;9.73;8.73;;;13.30;99.90;;;;;;5039483;28;20213;-60
2023/10/28 01:19:51;;;;;;;4.07;2.03;;;13.40;99.90;;;;;;5041513;28;20246;-61
2023/10/28 01:22:19;;;;;;;1.10;0.50;;;13.40;99.90;;;;;;5042592;28;20307;-62
2023/10/28 01:24:46;;;;;;;0.97;0.40;;;13.50;99.90;;;;;;5041250;28;20685;-60
2023/10/28 01:27:13;;;;;;;2.80;0.70;;;13.50;99.90;;;;;;5039254;28;20206;-59
2023/10/28 01:29:40;;;;;;;0.87;0.40;;;13.40;99.90;;;;;;5039915;28;20285;-61
2023/10/28 01:32:07;;;;;;;1.70;0.60;;;13.30;99.90;;;;;;5042711;28;20205;-60
2023/10/28 01:34:44;;;;;;;0.80;0.40;;;13.30;99.90;;;;;;5042775;28;20202;-60
2023/10/28 01:37:11;;;;;;;0.93;0.50;;;13.40;99.90;;;;;;5032267;28;20667;-59
2023/10/28 01:39:39;;;;;;;2.03;0.53;;;13.40;99.90;;;;;;5039141;28;20280;-59
2023/10/28 01:42:06;;;;;;;2.13;0.43;;;13.30;99.90;;;;;;5042170;28;20218;-60
2023/10/28 01:44:35;;;;;;;1.13;0.50;;;13.30;99.90;;;;;;5042496;28;20229;-59
2023/10/28 01:47:01;;;;;;;1.87;0.77;;;13.30;99.90;;;;;;5039107;28;20585;-59
2023/10/28 01:49:28;;;;;;;1.17;0.43;;;13.20;99.90;;;;;;5039104;28;20237;-60
2023/10/28 01:51:55;;;;;;;1.10;0.70;;;13.20;99.90;;;;;;5041143;28;20207;-60
2023/10/28 01:54:22;;;;;;;0.77;0.47;;;13.30;99.90;;;;;;5042399;28;20209;-59
2023/10/28 01:56:50;;;;;;;1.40;0.57;;;13.30;99.90;;;;;;5040867;28;20213;-60
2023/10/28 01:59:16;;;;;;;0.90;0.40;;;13.30;99.90;;;;;;5039099;28;20222;-60
2023/10/28 02:01:43;;;;;;;0.93;0.37;;;13.30;99.90;;;;;;5039953;28;20274;-60
2023/10/28 02:04:10;;;;;;;2.57;0.37;;;13.30;99.90;;;;;;5042818;28;20233;-59
2023/10/28 02:06:37;;;;;;;0.87;0.57;;;13.20;99.90;;;;;;5042476;28;20209;-60
2023/10/28 02:09:04;;;;;;;2.30;0.40;;;13.30;99.90;;;;;;5030708;28;20230;-60
2023/10/28 02:11:32;;;;;;;1.33;0.50;;;13.30;99.90;;;;;;5038966;28;20194;-61
2023/10/28 02:14:00;;;;;;;2.00;0.50;;;13.40;99.90;;;;;;5041487;28;20224;-60
2023/10/28 02:16:27;;;;;;;1.93;0.40;;;13.40;99.90;;;;;;5042120;28;20675;-60
2023/10/28 02:18:54;;;;;;;0.80;0.47;;;13.40;99.90;;;;;;5040059;28;20275;-60
2023/10/28 02:21:21;;;;;;;1.93;0.70;;;13.40;99.90;;;;;;5038609;28;20237;-60
2023/10/28 02:23:47;;;;;;;1.27;0.70;;;13.40;99.90;;;;;;5040780;28;20210;-63
2023/10/28 02:26:14;;;;;;;2.73;0.40;;;13.40;99.90;;;;;;5046148;28;20202;-59
2023/10/28 02:28:41;;;;;;;1.43;0.50;;;13.40;99.90;;;;;;5045387;28;20253;-60
2023/10/28 02:31:11;;;;;;;0.63;0.33;;;13.40;99.90;;;;;;5042332;28;20206;-60
2023/10/28 02:33:37;;;;;;;1.53;0.40;;;13.40;99.90;;;;;;5042408;28;20206;-60
2023/10/28 02:36:05;;;;;;;1.67;0.50;;;13.20;99.90;;;;;;5034284;28;20202;-59
2023/10/28 02:38:32;;;;;;;1.77;0.57;;;13.10;99.90;;;;;;5042201;28;20256;-62
2023/10/28 02:40:59;;;;;;;2.70;0.60;;;13.00;99.90;;;;;;5044639;28;20251;-60
2023/10/28 02:43:26;;;;;;;1.63;0.57;;;13.00;99.90;;;;;;5045699;28;20214;-60
2023/10/28 02:45:53;;;;;;;2.23;0.50;;;12.90;99.90;;;;;;5043328;28;20671;-59
2023/10/28 02:48:21;;;;;;;3.23;0.60;;;12.80;99.90;;;;;;5042115;28;20210;-59
2023/10/28 02:50:48;;;;;;;1.63;0.80;;;12.80;99.90;;;;;;5042915;28;20206;-60
2023/10/28 02:53:14;;;;;;;1.47;0.53;;;12.80;99.90;;;;;;5045330;28;20568;-59
2023/10/28 02:55:41;;;;;;;1.77;0.53;;;12.80;99.90;;;;;;5045111;28;20236;-60
2023/10/28 02:58:08;;;;;;;1.83;0.67;;;12.70;99.90;;;;;;5041967;28;20209;-58
2023/10/28 03:00:34;;;;;;;0.93;0.53;;;12.60;99.90;;;;;;5041845;28;20262;-58
2023/10/28 03:03:03;;;;;;;1.17;0.77;;;12.70;99.90;;;;;;5044669;28;20213;-58
2023/10/28 03:05:32;;;;;;;1.57;0.67;;;12.50;99.90;;;;;;5045265;28;20210;-59
2023/10/28 03:07:58;;;;;;;0.90;0.50;;;12.50;99.90;;;;;;5042304;28;20216;-57
2023/10/28 03:10:25;;;;;;;3.23;0.83;;;12.50;99.90;;;;;;5041339;28;20226;-58
2023/10/28 03:12:52;;;;;;;1.80;0.67;;;12.40;99.90;;;;;;5043185;28;20207;-58
2023/10/28 03:15:18;;;;;;;1.60;0.70;;;12.40;99.90;;;;;;5044958;28;20202;-57
2023/10/28 03:17:45;;;;;;;3.27;0.70;;;12.30;99.90;;;;;;5044414;28;20300;-58
2023/10/28 03:20:18;;;;;;;4.40;1.07;;;12.50;99.90;;;;;;5041734;28;20218;-57
2023/10/28 03:22:46;;;;;;;3.73;0.80;;;12.50;99.90;;;;;;5041870;28;20766;-58
2023/10/28 03:25:13;;;;;;;3.43;0.87;;;12.50;99.90;;;;;;5044936;28;20597;-60
2023/10/28 03:27:40;;;;;;;2.90;0.90;;;12.50;99.90;;;;;;5044803;28;20217;-58
2023/10/28 03:30:08;;;;;;;2.57;0.90;;;12.40;99.90;;;;;;5041253;28;20218;-57
2023/10/28 03:32:34;;;;;;;3.17;0.80;;;12.40;99.90;;;;;;5041271;28;20199;-57
2023/10/28 03:35:01;;;;;;;2.33;0.90;;;12.40;99.90;;;;;;5043311;28;20698;-58
2023/10/28 03:37:28;;;;;;;6.63;1.00;;;12.40;99.90;;;;;;5044388;28;20206;-60
2023/10/28 03:39:56;;;;;;;3.50;1.37;;;12.30;99.90;;;;;;5042426;28;20589;-57
2023/10/28 03:42:23;;;;;;;4.27;1.10;;;12.30;99.90;;;;;;5041415;28;20229;-57
2023/10/28 03:44:50;;;;;;;2.37;1.10;;;12.20;99.90;;;;;;5042084;28;20210;-58
2023/10/28 03:47:16;;;;;;;3.67;1.20;;;12.20;99.90;;;;;;5044602;28;20599;-57
2023/10/28 03:49:43;;;;;;;2.03;0.80;;;12.30;99.90;;;;;;5043819;28;20239;-58
2023/10/28 03:52:10;;;;;;;4.13;1.20;;;12.40;99.90;;;;;;5040632;28;20206;-58
2023/10/28 03:54:36;;;;;;;3.53;1.10;;;12.50;99.90;;;;;;5040699;28;20213;-57
2023/10/28 03:57:05;;;;;;;1.87;0.83;;;12.50;99.90;;;;;;5043915;28;20202;-58
2023/10/28 03:59:31;;;;;;;4.33;1.37;;;12.50;99.90;;;;;;5044022;28;20218;-58
2023/10/28 04:01:58;;;;;;;4.07;1.23;;;12.70;99.90;;;;;;5041335;28;20606;-58
2023/10/28 04:04:25;;;;;;;5.27;1.53;;;12.70;99.90;;;;;;5040604;28;20261;-59
2023/10/28 04:06:54;;;;;;;4.87;1.60;;;12.80;99.90;;;;;;5042137;28;20210;-59
2023/10/28 04:09:22;;;;;;;2.70;1.37;;;12.80;99.90;;;;;;5067639;22;20229;-59
2023/10/28 04:11:49;;;;;;;4.20;1.30;;;12.80;99.90;;;;;;5052155;28;20243;-59
2023/10/28 04:14:17;;;;;;;3.60;1.40;;;12.90;99.90;;;;;;5052090;28;20205;-60
2023/10/28 04:16:44;;;;;;;4.10;1.23;;;13.00;99.90;;;;;;5052009;28;20653;-59
2023/10/28 04:19:10;;;;;;;3.33;1.07;;;13.00;99.90;;;;;;5047903;28;20222;-60
2023/10/28 04:21:37;;;;;;;7.23;1.60;;;13.00;99.90;;;;;;5040088;28;20213;-60
2023/10/28 04:24:04;;;;;;;3.43;1.00;;;13.10;99.90;;;;;;5043080;28;20218;-59
2023/10/28 04:26:31;;;;;;;3.17;1.00;;;13.10;99.90;;;;;;5043388;28;20701;-59
2023/10/28 04:29:00;;;;;;;4.77;1.13;;;13.20;99.90;;;;;;5041140;28;20233;-59
2023/10/28 04:31:28;;;;;;;3.00;1.03;;;13.30;99.90;;;;;;5039888;28;20210;-60
2023/10/28 04:33:55;;;;;;;5.70;1.20;;;13.30;99.90;;;;;;5041647;28;20668;-60
2023/10/28 04:36:22;;;;;;;2.17;0.77;;;13.30;99.90;;;;;;5043694;28;20244;-60
2023/10/28 04:38:49;;;;;;;2.20;1.10;;;13.30;99.90;;;;;;5042195;28;20212;-59
2023/10/28 04:41:16;;;;;;;2.67;1.07;;;13.40;99.90;;;;;;5039824;28;20203;-59
2023/10/28 04:43:42;;;;;;;2.63;1.30;;;13.40;99.90;;;;;;5039725;28;20226;-60
2023/10/28 04:46:10;;;;;;;5.57;1.80;;;13.40;99.90;;;;;;5043206;28;20206;-60
2023/10/28 04:48:42;;;;;;;3.77;1.00;;;13.50;99.90;;;;;;5043021;28;20209;-61
2023/10/28 04:51:09;;;;;;;3.10;1.40;;;13.50;99.90;;;;;;5031478;28;20206;-60
2023/10/28 04:53:36;;;;;;;3.50;1.83;;;13.40;99.90;;;;;;5039545;28;20289;-60
2023/10/28 04:56:02;;;;;;;3.60;1.63;;;13.40;99.90;;;;;;5042147;28;20225;-60
2023/10/28 04:58:29;;;;;;;2.93;1.10;;;13.40;99.90;;;;;;5042695;28;20202;-60
2023/10/28 05:00:56;;;;;;;3.33;0.90;;;13.30;99.90;;;;;;5040680;28;20256;-59
2023/10/28 05:03:23;;;;;;;3.17;1.03;;;13.20;99.90;;;;;;5039462;28;20225;-61
2023/10/28 05:05:51;;;;;;;2.63;1.27;;;13.20;99.90;;;;;;5040164;28;20213;-60
2023/10/28 05:08:18;;;;;;;3.97;1.50;;;13.30;99.90;;;;;;5042432;28;20212;-60
2023/10/28 05:10:44;;;;;;;4.33;1.00;;;13.30;99.90;;;;;;5041875;28;20233;-59
2023/10/28 05:13:12;;;;;;;2.10;1.20;;;13.40;99.90;;;;;;5039160;28;20203;-60
2023/10/28 05:15:39;;;;;;;3.17;1.03;;;13.40;99.90;;;;;;5039325;28;20202;-59
2023/10/28 05:18:06;;;;;;;3.70;1.50;;;13.30;99.90;;;;;;5042312;28;20205;-61
2023/10/28 05:20:33;;;;;;;3.77;1.30;;;13.40;99.90;;;;;;5042339;28;20217;-59
2023/10/28 05:23:02;;;;;;;3.40;1.27;;;13.40;99.90;;;;;;5039963;28;20769;-60
2023/10/28 05:25:28;;;;;;;2.87;1.30;;;13.30;99.90;;;;;;5039133;28;20206;-60
2023/10/28 05:27:55;;;;;;;2.90;1.40;;;13.30;99.90;;;;;;5040659;28;20489;-60
2023/10/28 05:30:23;;;;;;;4.77;1.40;;;13.30;99.90;;;;;;5041888;28;20235;-60
2023/10/28 05:32:51;;;;;;;1.70;0.80;;;13.30;99.90;;;;;;5041342;28;20236;-59
2023/10/28 05:35:17;;;;;;;3.70;1.10;;;13.20;99.90;;;;;;5039126;28;20229;-59
2023/10/28 05:37:45;;;;;;;3.67;1.30;;;13.10;99.90;;;;;;5039178;28;20207;-60
2023/10/28 05:40:14;;;;;;;2.17;1.30;;;13.00;99.90;;;;;;5042403;28;20249;-62
2023/10/28 05:42:41;;;;;;;5.17;1.27;;;12.90;99.90;;;;;;5042245;28;20279;-59
2023/10/28 05:45:10;;;;;;;2.87;1.20;;;12.80;99.90;;;;;;5039412;28;20396;-60
2023/10/28 05:47:37;;;;;;;3.10;1.03;;;12.80;99.90;;;;;;5039453;28;20233;-59
2023/10/28 05:50:05;;;;;;;3.63;1.07;;;12.80;99.90;;;;;;5041442;28;20612;-59
2023/10/28 05:52:33;;;;;;;2.67;0.90;;;12.90;99.90;;;;;;5042200;28;20288;-60
2023/10/28 05:55:00;;;;;;;2.43;1.30;;;13.00;99.90;;;;;;5040016;28;20766;-59
2023/10/28 05:57:28;;;;;;;2.67;0.97;;;13.10;99.90;;;;;;5039031;28;20210;-60
2023/10/28 05:59:54;;;;;;;2.97;1.10;;;13.20;99.90;;;;;;5042993;28;20226;-60
2023/10/28 06:02:21;;;;;;;2.90;1.30;;;13.30;99.90;;;;;;5045942;28;20202;-59
2023/10/28 06:04:48;;;;;;;4.60;1.63;;;13.30;99.90;;;;;;5045648;28;20210;-59
2023/10/28 06:07:16;;;;;;;4.40;1.13;;;13.20;99.90;;;;;;5042667;28;20213;-60
2023/10/28 06:09:43;;;;;;;3.20;1.30;;;13.20;99.90;;;;;;5043148;28;20265;-59
2023/10/28 06:12:10;;;;;;;4.97;1.50;;;13.10;99.90;;;;;;5034554;28;20264;-62
2023/10/28 06:14:38;;;;;;;4.27;1.30;;;13.00;99.90;;;;;;5042650;28;20264;-59
2023/10/28 06:17:04;;;;;;;6.77;1.60;;;12.90;99.90;;;;;;5045238;28;20203;-60
2023/10/28 06:19:31;;;;;;;4.20;1.70;;;12.90;99.90;;;;;;5046214;28;20225;-60
2023/10/28 06:21:58;;;;;;;4.33;1.40;;;12.90;99.90;;;;;;5043946;28;20232;-60
2023/10/28 06:24:25;;;;;;;6.97;1.80;;;13.00;99.90;;;;;;5042739;28;20248;-60
2023/10/28 06:26:52;;;;;;;5.53;1.40;;;13.20;99.90;;;;;;5043201;28;20202;-59
2023/10/28 06:29:18;;;;;;;3.97;1.60;;;13.30;99.90;;;;;;5045720;28;20248;-60
2023/10/28 06:31:46;;;;;;;4.77;1.43;;;13.40;99.90;;;;;;5045186;28;20202;-61
2023/10/28 06:34:13;;;;;;;5.37;2.43;;;13.50;99.90;;;;;;5042592;28;20217;-60
2023/10/28 06:36:40;;;;;;;5.03;1.23;;;13.60;99.90;;;;;;5042512;28;20209;-59
2023/10/28 06:39:08;;;;;;;2.73;1.33;;;13.60;99.90;;;;;;5045074;28;20230;-60
2023/10/28 06:41:35;;;;;;;4.13;2.37;;;13.60;99.90;;;;;;5045303;28;20610;-61
2023/10/28 06:44:05;;;;;;;3.43;1.57;;;13.70;99.90;;;;;;5043007;28;20229;-59
2023/10/28 06:46:32;;;;;;;4.83;1.50;;;13.90;99.90;;;;;;5042146;28;20209;-59
2023/10/28 06:49:01;;;;;;;2.80;1.00;;;13.90;99.90;;;;;;5043459;28;20236;-60
2023/10/28 06:51:27;;;;;;;4.03;1.43;;;13.90;99.90;;;;;;5044936;28;20220;-60
2023/10/28 06:53:54;;;;;;;4.50;1.27;;;14.00;99.90;;;;;;5043985;28;20564;-59
2023/10/28 06:56:21;;;;;;;3.63;1.30;;;14.10;99.90;;;;;;5042083;28;20228;-60
2023/10/28 06:58:47;;;;;;;4.73;1.77;;;14.10;99.90;;;;;;5041873;28;20312;-60
2023/10/28 07:01:14;;;;;;;4.30;1.77;;;14.20;99.90;;;;;;5044962;28;20204;-59
2023/10/28 07:03:41;;;;;;;3.90;1.37;;;14.20;99.90;;;;;;5045104;28;20246;-59
2023/10/28 07:06:14;;;;;;;5.40;2.23;;;14.30;99.90;;;;;;5042128;28;20565;-59
2023/10/28 07:08:40;;;;;;;6.13;2.10;;;14.30;99.90;;;;;;5041434;28;20210;-59
2023/10/28 07:11:07;;;;;;;4.80;1.60;;;14.20;99.90;;;;;;5043960;28;20236;-59
2023/10/28 07:13:34;;;;;;;2.83;1.90;;;14.20;99.90;;;;;;5044901;28;20288;-59
2023/10/28 07:16:01;;;;;;;2.77;1.63;;;14.20;99.90;;;;;;5043010;28;20210;-58
2023/10/28 07:18:29;;;;;;;4.17;1.43;;;14.10;99.90;;;;;;5041321;28;20230;-59
2023/10/28 07:20:56;;;;;;;4.17;1.00;;;14.10;99.90;;;;;;5042158;28;20223;-60
2023/10/28 07:23:26;;;;;;;3.40;1.30;;;14.30;99.90;;;;;;5044366;28;20255;-59
2023/10/28 07:25:53;;;;;;;4.47;1.20;;;14.30;99.90;;;;;;5043606;28;20213;-61
2023/10/28 07:28:20;;;;;;;3.77;1.03;;;14.40;99.90;;;;;;5041376;28;20206;-61
2023/10/28 07:30:48;;;;;;;5.10;1.17;;;14.40;99.90;;;;;;5040902;28;20257;-60
2023/10/28 07:33:15;;;;;;;2.13;0.80;;;14.50;99.90;;;;;;5044854;28;20201;-60
2023/10/28 07:35:45;;;;;;;2.57;1.30;;;14.60;99.90;;;;;;5044284;28;20209;-60
2023/10/28 07:38:12;;;;;;;2.63;0.90;;;14.90;99.90;;;;;;5040930;28;20233;-60
2023/10/28 07:40:41;;;;;;;3.70;1.20;;;15.00;99.90;;;;;;5040949;28;20237;-59
2023/10/28 07:43:08;;;;;;;4.77;2.60;;;15.00;99.90;;;;;;5043552;28;20216;-60
2023/10/28 07:45:35;;;;;;;3.00;1.60;;;15.20;99.90;;;;;;5044377;28;20206;-57
2023/10/28 07:48:01;;;;;;;5.37;1.30;;;15.40;99.90;;;;;;5042150;28;20202;-56
2023/10/28 07:50:28;;;;;;;3.53;1.20;;;15.70;99.90;;;;;;5040360;28;20230;-56
2023/10/28 07:52:55;;;;;;;2.10;0.93;;;15.90;99.90;;;;;;5041393;28;20213;-58
2023/10/28 07:55:22;;;;;;;2.93;1.23;;;16.00;99.90;;;;;;5044231;28;20201;-58
2023/10/28 07:57:50;;;;;;;3.28;1.20;;;16.00;99.90;;;;;;5043909;28;20208;-59
2023/10/28 08:00:17;;;;;;;1.97;1.07;;;16.10;99.90;;;;;;5040400;28;20226;-59
2023/10/28 08:02:45;;;;;;;3.20;1.30;;;16.00;99.90;;;;;;5040640;28;20206;-57
2023/10/28 08:05:12;;;;;;;3.73;1.23;;;15.70;99.90;;;;;;5043451;28;20267;-57
2023/10/28 08:07:39;;;;;;;3.65;1.52;;;15.40;99.90;;;;;;5043566;28;20682;-57
2023/10/28 08:10:07;;;;;;;4.10;1.30;;;15.30;99.90;;;;;;5040865;28;20233;-57
2023/10/28 08:12:34;;;;;;;4.00;1.30;;;15.20;99.90;;;;;;5040323;28;20202;-57
2023/10/28 08:15:02;;;;;;;2.40;1.17;;;15.20;99.90;;;;;;5041858;28;20644;-57
2023/10/28 08:17:30;;;;;;;2.80;1.27;;;15.10;99.90;;;;;;5043599;28;20205;-57
2023/10/28 08:19:57;;;;;;;2.83;1.07;;;15.10;99.90;;;;;;5042137;28;20706;-57
2023/10/28 08:22:25;;;;;;;4.83;1.60;;;15.10;99.90;;;;;;5039875;28;20207;-56
2023/10/28 08:24:53;;;;;;;4.17;1.20;;;15.10;99.90;;;;;;5040370;28;20575;-56
2023/10/28 08:27:20;;;;;;;5.20;1.50;;;15.10;99.90;;;;;;5043252;28;20208;-56
2023/10/28 08:29:48;;;;;;;6.70;1.30;;;15.10;99.90;;;;;;5043514;28;20720;-57
2023/10/28 08:32:18;;;;;;;2.47;0.90;;;15.10;99.90;;;;;;5031904;28;20202;-57
2023/10/28 08:34:44;;;;;;;2.25;1.00;;;15.20;99.90;;;;;;5039901;28;20209;-57
2023/10/28 08:37:13;;;;;;;2.67;1.00;;;15.40;99.90;;;;;;5042969;28;20209;-59
2023/10/28 08:39:41;;;;;;;3.53;1.17;;;15.50;99.90;;;;;;5043554;28;20225;-57
2023/10/28 08:42:08;;;;;;;4.03;1.30;;;15.60;99.90;;;;;;5040199;28;20209;-57
2023/10/28 08:44:35;;;;;;;5.37;1.57;;;15.70;99.90;;;;;;5039687;28;20700;-57
2023/10/28 08:47:06;;;;;;;3.28;1.17;;;15.90;99.90;;;;;;5041416;28;20217;-57
2023/10/28 08:49:36;;;;;;;4.53;1.20;;;16.00;99.90;;;;;;5043132;28;20222;-57
2023/10/28 08:52:05;;;;;;;3.07;1.03;;;16.00;99.90;;;;;;5041052;28;20297;-57
2023/10/28 08:54:33;;;;;;;4.70;1.30;;;16.00;99.90;;;;;;5039608;28;20205;-57
2023/10/28 08:57:01;;;;;;;2.80;1.10;;;15.90;99.90;;;;;;5047720;28;20537;-57
2023/10/28 08:59:28;;;;;;;7.43;1.35;;;15.90;99.90;;;;;;5039459;28;20225;-58
2023/10/28 09:01:57;;;;;;;2.73;1.27;;;15.80;99.90;;;;;;5039739;28;20695;-58
2023/10/28 09:04:24;;;;;;;2.05;1.15;;;15.80;99.90;;;;;;5042580;28;20217;-59
2023/10/28 09:06:53;;;;;;;2.33;0.80;;;15.80;99.90;;;;;;5042380;28;20586;-58
2023/10/28 09:09:21;;;;;;;3.03;1.00;;;15.80;99.90;;;;;;5039140;28;20233;-58
2023/10/28 09:11:49;;;;;;;1.55;0.93;;;15.80;99.90;;;;;;5039175;28;20629;-58
2023/10/28 09:14:15;;;;;;;4.30;1.20;;;15.80;99.90;;;;;;5039292;28;20309;-57
2023/10/28 09:16:42;;;;;;;3.60;1.50;;;15.80;99.90;;;;;;5039055;28;20596;-57
2023/10/28 09:19:20;;;;;;;4.30;1.20;;;16.00;99.90;;;;;;5041609;28;20233;-57
2023/10/28 09:21:47;;;;;;;3.72;1.00;;;16.10;99.90;;;;;;5042863;28;20209;-58
2023/10/28 09:24:16;;;;;;;4.37;1.60;;;16.20;99.90;;;;;;5038987;28;20223;-59
2023/10/28 09:26:42;;;;;;;2.92;1.17;;;16.30;99.90;;;;;;5039289;28;20686;-57
2023/10/28 09:29:09;;;;;;;2.80;1.37;;;16.40;99.90;;;;;;5041333;28;20258;-56
2023/10/28 09:31:37;;;;;;;3.25;1.00;;;16.50;99.90;;;;;;5042103;28;20714;-58
2023/10/28 09:34:05;;;;;;;3.42;1.35;;;16.50;99.90;;;;;;5039599;28;20263;-58
2023/10/28 09:36:31;;;;;;;4.88;1.30;;;16.70;99.90;;;;;;5038978;28;20208;-58
2023/10/28 09:39:01;;;;;;;3.37;1.00;;;16.70;99.90;;;;;;5039577;28;20221;-57
2023/10/28 09:41:30;;;;;;;3.33;1.08;;;16.80;99.90;;;;;;5042306;28;20209;-58
2023/10/28 09:43:58;;;;;;;3.92;1.02;;;16.80;99.90;;;;;;5041290;28;20248;-58
2023/10/28 09:46:31;;;;;;;5.10;1.40;;;16.80;99.90;;;;;;5038997;28;20253;-59
2023/10/28 09:49:03;;;;;;;4.22;1.05;;;16.80;99.90;;;;;;5039736;28;20226;-57
2023/10/28 09:51:31;;;;;;;3.58;0.90;;;16.80;99.90;;;;;;5042257;28;20663;-58
2023/10/28 09:54:00;;;;;;;7.47;1.77;;;16.90;99.90;;;;;;5041425;28;20321;-58
2023/10/28 09:56:34;;;;;;;3.92;1.30;;;16.90;99.90;;;;;;5039325;28;20268;-59
2023/10/28 09:59:07;;;;;;;3.70;1.02;;;17.00;99.90;;;;;;5040019;28;20225;-60
2023/10/28 10:01:40;;;;;;;2.63;0.82;;;17.10;99.90;;;;;;5042233;28;20662;-58
2023/10/28 10:04:14;;;;;;;3.60;1.08;;;17.20;99.90;;;;;;5040392;28;20316;-60
2023/10/28 10:06:42;;;;;;;2.33;0.75;;;17.30;99.90;;;;;;5039195;28;20324;-57
2023/10/28 10:09:12;;;;;;;4.32;1.10;;;17.50;99.90;;;;;;5063909;22;20787;-56
2023/10/28 10:11:42;;;;;;;4.85;1.05;;;17.70;99.90;;;;;;5049943;28;20210;-57
2023/10/28 10:14:11;;;;;;;2.15;0.90;;;17.90;99.90;;;;;;5049948;28;20206;-56
2023/10/28 10:16:47;;;;;;;3.45;1.17;;;18.10;99.90;;;;;;5049987;28;20206;-57
2023/10/28 10:19:22;;;;;;;3.97;1.27;;;18.20;99.90;;;;;;5050099;28;20706;-57
2023/10/28 10:21:51;;;;;;;3.25;1.20;;;18.40;99.90;;;;;;5041764;28;20216;-57
2023/10/28 10:24:20;;;;;;;3.58;0.93;;;18.60;99.90;;;;;;5030418;28;20246;-56
2023/10/28 10:26:57;;;;;;;3.75;1.05;;;18.80;99.90;;;;;;5038095;28;20214;-56
2023/10/28 10:29:26;;;;;;;3.50;0.95;;;19.00;99.90;;;;;;5031202;28;20340;-57
2023/10/28 10:31:55;;;;;;;2.40;0.80;;;19.20;99.90;;;;;;5038309;28;20202;-56
2023/10/28 10:34:33;;;;;;;3.50;1.05;;;19.40;99.90;;;;;;5041708;28;20652;-56
2023/10/28 10:37:00;;;;;;;3.42;1.20;;;19.70;99.90;;;;;;5040669;28;20213;-56
2023/10/28 10:39:27;;;;;;;1.40;0.82;;;19.90;99.90;;;;;;5038242;28;20353;-57
2023/10/28 10:41:59;;;;;;;5.10;1.30;;;20.10;99.90;;;;;;5038152;28;20225;-56
2023/10/28 10:44:33;;;;;;;3.55;1.05;;;20.10;99.90;;;;;;5041902;28;20703;-57
2023/10/28 10:47:02;;;;;;;8.63;1.45;;;20.10;99.90;;;;;;5044017;28;20209;-57
2023/10/28 10:49:30;;;;;;;5.28;1.15;;;20.00;99.90;;;;;;5041690;28;20229;-57
2023/10/28 10:51:58;;;;;;;3.45;1.30;;;19.90;99.90;;;;;;5041916;28;20244;-57
2023/10/28 10:54:30;;;;;;;4.80;1.33;;;19.80;99.90;;;;;;5045190;28;20202;-57
2023/10/28 10:56:58;;;;;;;7.93;1.50;;;19.90;99.90;;;;;;5044411;28;20259;-56
2023/10/28 10:59:25;;;;;;;4.68;1.30;;;20.00;99.90;;;;;;5041397;28;20222;-56
2023/10/28 11:01:52;;;;;;;3.00;1.00;;;20.00;99.90;;;;;;5041215;28;20644;-56
2023/10/28 11:04:19;;;;;;;4.25;1.48;;;20.00;99.90;;;;;;5033346;28;20714;-55
2023/10/28 11:06:46;;;;;;;3.28;1.20;;;20.10;99.90;;;;;;5041472;28;20210;-56
2023/10/28 11:09:15;;;;;;;6.28;1.25;;;20.00;99.90;;;;;;5044099;28;20213;-56
2023/10/28 11:11:42;;;;;;;4.10;1.60;;;20.10;99.90;;;;;;5044961;28;20202;-57
2023/10/28 11:14:12;;;;;;;5.82;1.23;;;20.10;99.90;;;;;;5042862;28;20206;-56
2023/10/28 11:16:39;;;;;;;4.38;1.20;;;20.10;99.90;;;;;;5041597;28;20217;-56
2023/10/28 11:19:07;;;;;;;5.15;1.33;;;20.30;99.90;;;;;;5042554;28;20229;-55
2023/10/28 11:21:34;;;;;;;3.95;1.63;;;20.30;99.90;;;;;;5044659;28;20560;-57
2023/10/28 11:24:01;;;;;;;4.15;1.65;;;20.40;99.90;;;;;;5043899;28;20202;-56
2023/10/28 11:26:28;;;;;;;3.15;1.10;;;20.50;99.90;;;;;;5041287;28;20321;-57
2023/10/28 11:28:59;;;;;;;2.83;1.27;;;20.40;99.90;;;;;;5041334;28;20222;-57
2023/10/28 11:31:29;;;;;;;3.03;1.70;;;20.20;99.90;;;;;;5044343;28;20339;-57
2023/10/28 11:33:57;;;;;;;7.32;1.40;;;19.90;99.90;;;;;;5044233;28;20210;-57
2023/10/28 11:36:24;;;;;;;4.40;1.23;;;19.70;99.90;;;;;;5041534;28;20199;-57
2023/10/28 11:38:51;;;;;;;5.10;1.60;;;19.50;99.90;;;;;;5040896;28;20214;-57
2023/10/28 11:41:18;;;;;;;4.18;1.20;;;19.30;99.90;;;;;;5044231;28;20222;-57
2023/10/28 11:43:48;;;;;;;4.40;1.20;;;19.10;99.90;;;;;;5044474;28;20628;-57
2023/10/28 11:46:15;;;;;;;5.65;1.70;;;19.00;99.90;;;;;;5041566;28;20236;-56
2023/10/28 11:48:45;;;;;;;3.78;1.38;;;19.00;99.90;;;;;;5040835;28;20214;-64
2023/10/28 11:51:12;;;;;;;4.10;1.10;;;19.00;99.90;;;;;;5042869;28;20249;-57
2023/10/28 11:53:44;;;;;;;2.60;1.02;;;18.90;99.90;;;;;;5044091;28;20209;-57
2023/10/28 11:56:10;;;;;;;2.50;1.30;;;18.80;99.90;;;;;;5040998;28;20685;-57
2023/10/28 11:58:37;;;;;;;3.10;1.35;;;18.70;99.90;;;;;;5038117;28;20213;-56
2023/10/28 12:01:04;;;;;;;3.20;1.20;;;18.60;99.90;;;;;;5042983;28;20230;-57
2023/10/28 12:03:33;;;;;;;4.45;1.40;;;18.50;99.90;;;;;;5040713;28;20296;-57
2023/10/28 12:06:00;;;;;;;4.00;1.20;;;18.50;99.90;;;;;;5041127;28;20344;-57
2023/10/28 12:08:27;;;;;;;3.05;1.20;;;18.60;99.90;;;;;;5044000;28;20256;-55
2023/10/28 12:10:54;;;;;;;3.88;1.25;;;18.60;99.90;;;;;;5043819;28;20233;-57
2023/10/28 12:13:22;;;;;;;4.40;1.10;;;18.60;99.90;;;;;;5043771;28;20613;-56
2023/10/28 12:15:49;;;;;;;3.95;1.52;;;18.60;99.90;;;;;;5043902;28;20198;-56
2023/10/28 12:18:17;;;;;;;7.18;1.83;;;18.50;99.90;;;;;;5040961;28;20259;-56
2023/10/28 12:20:44;;;;;;;3.38;1.48;;;18.40;99.90;;;;;;5040250;28;20317;-55
2023/10/28 12:23:13;;;;;;;6.00;1.35;;;18.50;99.90;;;;;;5042118;28;20210;-57
2023/10/28 12:25:40;;;;;;;2.85;1.10;;;18.50;99.90;;;;;;5043769;28;20329;-55
2023/10/28 12:28:07;;;;;;;5.70;1.58;;;18.50;99.90;;;;;;5042291;28;20205;-56
2023/10/28 12:30:34;;;;;;;5.35;1.50;;;18.60;99.90;;;;;;5040326;28;20230;-56
2023/10/28 12:33:01;;;;;;;3.25;1.30;;;18.60;99.90;;;;;;5040787;28;20690;-57
2023/10/28 12:35:28;;;;;;;7.68;1.45;;;18.60;99.90;;;;;;5043354;28;20230;-55
2023/10/28 12:37:54;;;;;;;5.63;1.58;;;18.60;99.90;;;;;;5043389;28;20205;-56
2023/10/28 12:40:22;;;;;;;5.85;1.45;;;18.50;99.90;;;;;;5042904;28;20246;-56
2023/10/28 12:42:49;;;;;;;4.93;1.38;;;18.50;99.90;;;;;;5043078;28;20667;-57
2023/10/28 12:45:16;;;;;;;5.03;1.30;;;18.60;99.90;;;;;;5040320;28;20222;-57
2023/10/28 12:47:42;;;;;;;6.43;1.63;;;18.60;99.90;;;;;;5039603;28;20564;-56
2023/10/28 12:50:14;;;;;;;3.75;1.25;;;18.60;99.90;;;;;;5041355;28;20627;-57